createdAt,value
2022-08-02T00:01:27.721Z,15.50
2022-08-02T00:03:00.925Z,15.50
2022-08-02T00:04:34.207Z,15.50
2022-08-02T00:06:07.779Z,15.40
2022-08-02T00:07:41.745Z,15.40
2022-08-02T00:09:15.027Z,15.30
2022-08-02T00:10:48.225Z,15.30
2022-08-02T00:12:21.424Z,15.20
2022-08-02T00:13:53.647Z,15.20
2022-08-02T00:15:27.033Z,15.20
2022-08-02T00:17:01.598Z,15.20
2022-08-02T00:18:34.955Z,15.20
2022-08-02T00:20:07.882Z,15.30
2022-08-02T00:21:41.101Z,15.30
2022-08-02T00:23:14.286Z,15.30
2022-08-02T00:24:47.497Z,15.30
2022-08-02T00:26:20.638Z,15.30
2022-08-02T00:27:54.013Z,15.20
2022-08-02T00:29:27.196Z,15.20
2022-08-02T00:31:00.820Z,15.20
2022-08-02T00:32:35.380Z,15.20
2022-08-02T00:34:30.483Z,15.10
2022-08-02T00:36:01.835Z,15.10
2022-08-02T00:37:39.050Z,15.00
2022-08-02T00:39:34.143Z,15.00
2022-08-02T00:41:04.491Z,14.90
2022-08-02T00:42:37.677Z,14.90
2022-08-02T00:44:10.852Z,14.90
2022-08-02T00:46:03.090Z,14.90
2022-08-02T00:47:38.579Z,14.90
2022-08-02T00:49:11.958Z,14.80
2022-08-02T00:50:47.762Z,14.80
2022-08-02T00:52:20.906Z,14.70
2022-08-02T00:53:54.111Z,14.70
2022-08-02T00:55:31.008Z,14.60
2022-08-02T00:57:04.569Z,14.50
2022-08-02T00:58:37.775Z,14.50
2022-08-02T01:00:11.982Z,14.60
2022-08-02T01:01:56.654Z,14.50
2022-08-02T01:03:32.672Z,14.50
2022-08-02T01:05:06.478Z,14.40
2022-08-02T01:06:42.291Z,14.40
2022-08-02T01:08:15.415Z,14.40
2022-08-02T01:09:48.599Z,14.40
2022-08-02T01:11:21.781Z,14.40
2022-08-02T01:12:54.135Z,14.30
2022-08-02T01:14:28.026Z,14.30
2022-08-02T01:16:06.597Z,14.30
2022-08-02T01:17:45.838Z,14.20
2022-08-02T01:19:35.764Z,14.20
2022-08-02T01:21:29.961Z,14.20
2022-08-02T01:23:14.982Z,14.20
2022-08-02T01:25:05.178Z,14.10
2022-08-02T01:26:48.029Z,14.10
2022-08-02T01:28:37.546Z,14.10
2022-08-02T01:30:12.111Z,14.10
2022-08-02T01:31:51.229Z,14.20
2022-08-02T01:33:26.399Z,14.10
2022-08-02T01:35:04.684Z,14.10
2022-08-02T01:36:40.270Z,14.20
2022-08-02T01:38:17.893Z,14.10
2022-08-02T01:39:56.746Z,14.10
2022-08-02T01:41:32.097Z,14.00
2022-08-02T01:43:08.232Z,14.00
2022-08-02T01:44:50.278Z,14.00
2022-08-02T01:46:24.200Z,13.90
2022-08-02T01:47:58.157Z,13.80
2022-08-02T01:49:33.846Z,13.90
2022-08-02T01:51:08.142Z,13.90
2022-08-02T01:52:53.203Z,13.80
2022-08-02T01:54:30.318Z,13.80
2022-08-02T01:56:06.677Z,13.80
2022-08-02T01:57:42.530Z,13.80
2022-08-02T01:59:19.951Z,13.80
2022-08-02T02:00:58.387Z,13.90
2022-08-02T02:02:33.568Z,13.80
2022-08-02T02:04:08.033Z,13.90
2022-08-02T02:05:42.774Z,13.80
2022-08-02T02:07:17.657Z,13.80
2022-08-02T02:08:52.263Z,13.80
2022-08-02T02:10:28.789Z,13.70
2022-08-02T02:12:13.035Z,13.70
2022-08-02T02:13:48.509Z,13.70
2022-08-02T02:15:24.168Z,13.70
2022-08-02T02:17:00.967Z,13.70
2022-08-02T02:18:40.458Z,13.70
2022-08-02T02:20:17.065Z,13.70
2022-08-02T02:21:49.509Z,13.70
2022-08-02T02:23:24.419Z,13.70
2022-08-02T02:24:59.649Z,13.60
2022-08-02T02:26:35.703Z,13.60
2022-08-02T02:28:14.021Z,13.60
2022-08-02T02:29:51.792Z,13.60
2022-08-02T02:31:26.526Z,13.60
2022-08-02T02:33:03.995Z,13.60
2022-08-02T02:34:42.041Z,13.60
2022-08-02T02:36:17.135Z,13.60
2022-08-02T02:37:52.017Z,13.60
2022-08-02T02:39:28.620Z,13.60
2022-08-02T02:41:04.032Z,13.60
2022-08-02T02:42:37.902Z,13.60
2022-08-02T02:44:16.974Z,13.60
2022-08-02T02:45:51.116Z,13.70
2022-08-02T02:47:40.845Z,13.60
2022-08-02T02:49:17.988Z,13.60
2022-08-02T02:50:52.589Z,13.60
2022-08-02T02:52:26.443Z,13.60
2022-08-02T02:54:30.225Z,13.50
2022-08-02T02:56:02.197Z,13.50
2022-08-02T02:57:37.602Z,13.50
2022-08-02T02:59:11.240Z,13.50
2022-08-02T03:01:02.365Z,13.50
2022-08-02T03:02:37.792Z,13.50
2022-08-02T03:04:13.525Z,13.50
2022-08-02T03:05:48.266Z,13.50
2022-08-02T03:07:21.656Z,13.60
2022-08-02T03:08:54.891Z,13.60
2022-08-02T03:10:28.927Z,13.60
2022-08-02T03:12:02.581Z,13.70
2022-08-02T03:13:37.577Z,13.70
2022-08-02T03:15:14.039Z,13.70
2022-08-02T03:16:48.443Z,13.70
2022-08-02T03:18:35.530Z,13.70
2022-08-02T03:20:10.992Z,13.70
2022-08-02T03:21:46.720Z,13.60
2022-08-02T03:23:19.058Z,13.50
2022-08-02T03:24:52.230Z,13.50
2022-08-02T03:26:25.446Z,13.40
2022-08-02T03:27:58.616Z,13.40
2022-08-02T03:29:34.609Z,13.40
2022-08-02T03:31:08.288Z,13.40
2022-08-02T03:32:43.829Z,13.30
2022-08-02T03:34:16.976Z,13.30
2022-08-02T03:35:52.123Z,13.30
2022-08-02T03:37:28.212Z,13.40
2022-08-02T03:39:02.757Z,13.30
2022-08-02T03:40:36.587Z,13.30
2022-08-02T03:42:10.952Z,13.30
2022-08-02T03:43:49.660Z,13.30
2022-08-02T03:45:23.508Z,13.30
2022-08-02T03:46:55.957Z,13.30
2022-08-02T03:48:35.089Z,13.30
2022-08-02T03:50:12.289Z,13.30
2022-08-02T03:51:46.433Z,13.30
2022-08-02T03:53:21.294Z,13.40
2022-08-02T03:54:54.626Z,13.50
2022-08-02T03:56:27.831Z,13.60
2022-08-02T03:58:00.600Z,13.70
2022-08-02T03:59:42.362Z,13.90
2022-08-02T04:01:15.703Z,14.00
2022-08-02T04:02:48.522Z,14.10
2022-08-02T04:04:21.742Z,14.20
2022-08-02T04:06:01.079Z,14.20
2022-08-02T04:08:36.104Z,14.30
2022-08-02T04:09:32.194Z,14.50
2022-08-02T04:11:23.372Z,14.60
2022-08-02T04:12:56.770Z,14.70
2022-08-02T04:14:30.392Z,14.90
2022-08-02T04:16:14.734Z,15.00
2022-08-02T04:17:53.834Z,15.20
2022-08-02T04:19:32.484Z,15.30
2022-08-02T04:21:07.632Z,15.50
2022-08-02T04:22:46.754Z,15.50
2022-08-02T04:24:25.033Z,15.70
2022-08-02T04:26:01.459Z,15.80
2022-08-02T04:27:50.046Z,15.90
2022-08-02T04:29:33.179Z,15.90
2022-08-02T04:31:06.258Z,16.00
2022-08-02T04:32:40.354Z,16.10
2022-08-02T04:34:15.295Z,16.10
2022-08-02T04:35:49.032Z,16.10
2022-08-02T04:37:22.482Z,16.10
2022-08-02T04:38:55.798Z,16.30
2022-08-02T04:40:28.173Z,16.30
2022-08-02T04:42:02.736Z,16.40
2022-08-02T04:43:35.207Z,16.50
2022-08-02T04:45:10.194Z,16.50
2022-08-02T04:46:49.833Z,16.50
2022-08-02T04:48:22.825Z,16.50
2022-08-02T04:49:56.190Z,16.50
2022-08-02T04:51:38.209Z,16.50
2022-08-02T04:53:11.919Z,16.50
2022-08-02T04:54:45.088Z,16.70
2022-08-02T04:56:18.253Z,16.80
2022-08-02T04:57:54.816Z,16.70
2022-08-02T04:59:28.078Z,16.80
2022-08-02T05:01:01.511Z,16.60
2022-08-02T05:02:33.862Z,16.60
2022-08-02T05:04:07.264Z,16.60
2022-08-02T05:05:40.466Z,16.60
2022-08-02T05:07:13.641Z,16.80
2022-08-02T05:08:47.082Z,17.00
2022-08-02T05:10:26.331Z,17.20
2022-08-02T05:11:59.767Z,17.30
2022-08-02T05:13:34.311Z,17.50
2022-08-02T05:15:30.380Z,17.70
2022-08-02T05:17:05.587Z,18.10
2022-08-02T05:18:38.967Z,18.30
2022-08-02T05:20:14.346Z,18.40
2022-08-02T05:21:47.519Z,18.40
2022-08-02T05:23:20.693Z,18.40
2022-08-02T05:24:53.063Z,18.50
2022-08-02T05:26:26.200Z,18.30
2022-08-02T05:27:59.427Z,18.10
2022-08-02T05:29:34.096Z,18.40
2022-08-02T05:31:07.526Z,18.50
2022-08-02T05:32:47.921Z,18.40
2022-08-02T05:34:21.145Z,18.50
2022-08-02T05:35:54.303Z,18.40
2022-08-02T05:37:27.604Z,18.60
2022-08-02T05:39:05.561Z,18.80
2022-08-02T05:40:54.664Z,18.90
2022-08-02T05:42:28.394Z,19.00
2022-08-02T05:44:01.762Z,19.10
2022-08-02T05:45:36.843Z,19.10
2022-08-02T05:47:10.207Z,19.30
2022-08-02T05:48:44.903Z,19.40
2022-08-02T05:50:18.114Z,20.00
2022-08-02T05:51:59.344Z,20.30
2022-08-02T05:53:39.950Z,21.10
2022-08-02T05:55:16.859Z,21.40
2022-08-02T05:56:57.135Z,21.30
2022-08-02T05:58:37.753Z,21.60
2022-08-02T06:00:14.287Z,22.20
2022-08-02T06:01:53.416Z,22.30
2022-08-02T06:03:31.710Z,21.90
2022-08-02T06:05:08.082Z,22.70
2022-08-02T06:06:45.522Z,24.50
2022-08-02T06:08:21.264Z,24.70
2022-08-02T06:09:55.039Z,24.80
2022-08-02T06:11:39.350Z,25.70
2022-08-02T06:13:16.991Z,26.20
2022-08-02T06:14:54.379Z,27.40
2022-08-02T06:16:31.863Z,27.60
2022-08-02T06:18:09.174Z,24.90
2022-08-02T06:19:51.053Z,22.60
2022-08-02T06:22:32.543Z,22.00
2022-08-02T06:23:23.223Z,21.80
2022-08-02T06:24:57.326Z,21.00
2022-08-02T06:26:30.974Z,21.00
2022-08-02T06:28:10.625Z,21.20
2022-08-02T06:29:46.914Z,21.10
2022-08-02T06:31:20.684Z,21.10
2022-08-02T06:32:54.405Z,21.50
2022-08-02T06:34:28.874Z,21.30
2022-08-02T06:36:05.924Z,21.40
2022-08-02T06:37:45.452Z,21.30
2022-08-02T06:39:25.747Z,21.70
2022-08-02T06:41:11.467Z,22.10
2022-08-02T06:42:52.846Z,24.50
2022-08-02T06:47:09.881Z,24.20
2022-08-02T06:48:12.895Z,25.20
2022-08-02T06:49:52.129Z,27.00
2022-08-02T06:51:27.356Z,28.40
2022-08-02T06:53:00.621Z,28.30
2022-08-02T06:54:34.369Z,26.70
2022-08-02T06:56:09.185Z,26.70
2022-08-02T06:57:42.962Z,26.80
2022-08-02T06:59:16.164Z,26.20
2022-08-02T07:00:49.596Z,25.70
2022-08-02T07:02:22.787Z,25.10
2022-08-02T07:03:55.987Z,24.00
2022-08-02T07:05:31.286Z,23.50
2022-08-02T07:07:04.790Z,23.60
2022-08-02T07:08:39.483Z,25.00
2022-08-02T07:10:13.738Z,25.60
2022-08-02T07:11:46.896Z,26.50
2022-08-02T07:13:20.042Z,27.10
2022-08-02T07:14:53.485Z,26.80
2022-08-02T07:16:26.640Z,26.00
2022-08-02T07:17:59.906Z,24.00
2022-08-02T07:19:37.667Z,24.60
2022-08-02T07:21:12.792Z,25.10
2022-08-02T07:22:45.958Z,27.50
2022-08-02T07:24:19.107Z,27.80
2022-08-02T07:26:03.047Z,25.50
2022-08-02T07:27:37.682Z,25.00
2022-08-02T07:29:10.801Z,24.80
2022-08-02T07:30:44.195Z,24.50
2022-08-02T07:32:17.659Z,24.10
2022-08-02T07:33:50.858Z,24.90
2022-08-02T07:35:24.053Z,24.10
2022-08-02T07:37:03.743Z,24.90
2022-08-02T07:38:39.126Z,25.60
2022-08-02T07:40:19.627Z,25.60
2022-08-02T07:41:53.929Z,25.40
2022-08-02T07:43:27.207Z,26.20
2022-08-02T07:45:00.417Z,26.30
2022-08-02T07:46:33.687Z,26.20
2022-08-02T07:48:08.534Z,26.90
2022-08-02T07:49:41.766Z,27.00
2022-08-02T07:51:17.314Z,26.50
2022-08-02T07:52:57.084Z,24.80
2022-08-02T07:54:31.267Z,23.90
2022-08-02T07:56:04.631Z,23.70
2022-08-02T07:57:42.540Z,24.30
2022-08-02T07:59:18.820Z,25.10
2022-08-02T08:00:52.033Z,25.60
2022-08-02T08:02:25.677Z,26.00
2022-08-02T08:03:59.024Z,26.70
2022-08-02T08:05:32.161Z,27.10
2022-08-02T08:07:06.247Z,28.00
2022-08-02T08:08:40.741Z,29.80
2022-08-02T08:10:13.952Z,30.80
2022-08-02T08:11:47.160Z,30.50
2022-08-02T08:13:20.354Z,28.00
2022-08-02T08:14:53.507Z,27.90
2022-08-02T08:16:29.063Z,27.90
2022-08-02T08:18:02.237Z,29.40
2022-08-02T08:19:51.458Z,30.90
2022-08-02T08:21:25.470Z,31.60
2022-08-02T08:22:58.649Z,32.20
2022-08-02T08:24:33.206Z,31.90
2022-08-02T08:26:06.734Z,31.10
2022-08-02T08:27:39.939Z,30.40
2022-08-02T08:29:13.285Z,29.20
2022-08-02T08:30:47.338Z,28.60
2022-08-02T08:32:20.942Z,30.10
2022-08-02T08:33:54.702Z,30.90
2022-08-02T08:35:28.263Z,30.90
2022-08-02T08:37:02.428Z,31.20
2022-08-02T08:38:35.762Z,31.60
2022-08-02T08:40:12.993Z,31.70
2022-08-02T08:41:52.807Z,32.20
2022-08-02T08:43:26.144Z,32.00
2022-08-02T08:44:59.453Z,32.00
2022-08-02T08:46:34.760Z,31.90
2022-08-02T08:48:15.855Z,32.20
2022-08-02T08:50:05.748Z,32.20
2022-08-02T08:51:43.412Z,32.20
2022-08-02T08:53:17.142Z,32.50
2022-08-02T08:54:54.186Z,32.80
2022-08-02T08:56:33.177Z,32.90
2022-08-02T08:58:06.866Z,32.80
2022-08-02T08:59:40.219Z,33.10
2022-08-02T09:01:14.410Z,32.70
2022-08-02T09:02:48.420Z,32.30
2022-08-02T09:04:22.074Z,32.10
2022-08-02T09:05:59.041Z,31.80
2022-08-02T09:07:32.249Z,32.10
2022-08-02T09:09:05.458Z,32.60
2022-08-02T09:10:41.146Z,33.00
2022-08-02T09:12:22.285Z,33.10
2022-08-02T09:13:56.712Z,33.00
2022-08-02T09:15:30.077Z,33.50
2022-08-02T09:17:12.157Z,32.90
2022-08-02T09:18:47.584Z,31.70
2022-08-02T09:20:20.939Z,32.50
2022-08-02T09:22:03.827Z,32.80
2022-08-02T09:23:40.001Z,33.10
2022-08-02T09:25:17.047Z,32.90
2022-08-02T09:26:51.496Z,32.10
2022-08-02T09:28:29.336Z,32.60
2022-08-02T09:30:12.345Z,33.00
2022-08-02T09:31:49.750Z,33.40
2022-08-02T09:33:26.303Z,33.50
2022-08-02T09:34:59.638Z,34.90
2022-08-02T09:36:40.706Z,32.00
2022-08-02T09:38:14.909Z,28.70
2022-08-02T09:39:48.090Z,28.50
2022-08-02T09:41:23.527Z,29.30
2022-08-02T09:43:00.097Z,30.30
2022-08-02T09:44:34.630Z,31.60
2022-08-02T09:46:16.495Z,30.80
2022-08-02T09:47:50.812Z,30.20
2022-08-02T09:49:24.192Z,30.70
2022-08-02T09:50:58.085Z,32.10
2022-08-02T09:52:36.989Z,32.80
2022-08-02T09:54:19.144Z,31.90
2022-08-02T09:55:57.153Z,30.70
2022-08-02T09:57:33.515Z,30.30
2022-08-02T09:59:08.438Z,31.50
2022-08-02T10:00:54.954Z,33.10
2022-08-02T10:02:28.359Z,34.60
2022-08-02T10:04:04.705Z,34.50
2022-08-02T10:05:55.786Z,34.90
2022-08-02T10:07:30.310Z,34.10
2022-08-02T10:09:04.748Z,34.10
2022-08-02T10:10:37.957Z,34.40
2022-08-02T10:12:12.611Z,35.10
2022-08-02T10:13:46.670Z,35.20
2022-08-02T10:15:23.405Z,35.30
2022-08-02T10:17:00.698Z,34.50
2022-08-02T10:18:41.682Z,34.60
2022-08-02T10:20:15.017Z,34.10
2022-08-02T10:21:53.723Z,33.40
2022-08-02T10:23:27.992Z,34.20
2022-08-02T10:25:07.163Z,34.40
2022-08-02T10:26:43.445Z,34.30
2022-08-02T10:28:19.760Z,35.20
2022-08-02T10:29:55.905Z,35.90
2022-08-02T10:31:34.198Z,36.60
2022-08-02T10:33:11.523Z,36.60
2022-08-02T10:34:52.910Z,33.30
2022-08-02T10:36:27.559Z,33.20
2022-08-02T10:38:03.805Z,33.30
2022-08-02T10:39:41.075Z,32.60
2022-08-02T10:41:14.480Z,33.40
2022-08-02T10:42:48.871Z,34.20
2022-08-02T10:44:28.037Z,33.40
2022-08-02T10:46:22.965Z,33.60
2022-08-02T10:48:04.463Z,34.30
2022-08-02T10:49:50.793Z,33.30
2022-08-02T10:51:24.505Z,33.10
2022-08-02T10:53:23.849Z,34.00
2022-08-02T10:54:59.131Z,33.60
2022-08-02T10:56:47.600Z,33.50
2022-08-02T10:58:26.112Z,33.60
2022-08-02T11:00:10.807Z,33.70
2022-08-02T11:01:45.242Z,33.20
2022-08-02T11:03:40.068Z,32.70
2022-08-02T11:05:19.927Z,33.20
2022-08-02T11:07:08.843Z,33.60
2022-08-02T11:08:42.337Z,33.10
2022-08-02T11:10:37.217Z,31.90
2022-08-02T11:12:12.389Z,31.80
2022-08-02T11:14:02.559Z,30.50
2022-08-02T11:15:51.243Z,30.60
2022-08-02T11:17:24.992Z,30.00
2022-08-02T11:19:08.587Z,30.00
2022-08-02T11:20:43.330Z,31.10
2022-08-02T11:22:23.719Z,32.50
2022-08-02T11:24:26.258Z,33.80
2022-08-02T11:26:08.395Z,33.10
2022-08-02T11:27:44.572Z,34.10
2022-08-02T11:29:18.513Z,35.20
2022-08-02T11:30:58.217Z,33.90
2022-08-02T11:32:31.620Z,33.60
2022-08-02T11:34:09.591Z,31.60
2022-08-02T11:35:44.657Z,30.60
2022-08-02T11:37:29.724Z,31.40
2022-08-02T11:39:12.500Z,31.90
2022-08-02T11:40:50.350Z,32.50
2022-08-02T11:42:34.760Z,33.50
2022-08-02T11:44:08.174Z,32.10
2022-08-02T11:45:41.545Z,30.20
2022-08-02T11:47:14.960Z,28.90
2022-08-02T11:48:48.153Z,29.00
2022-08-02T11:50:29.942Z,28.50
2022-08-02T11:52:07.923Z,29.70
2022-08-02T11:53:46.244Z,30.40
2022-08-02T11:55:19.359Z,30.80
2022-08-02T11:56:53.201Z,31.20
2022-08-02T11:58:26.308Z,31.20
2022-08-02T11:59:59.536Z,32.40
2022-08-02T12:01:36.914Z,32.70
2022-08-02T12:03:19.860Z,32.80
2022-08-02T12:04:57.327Z,32.50
2022-08-02T12:06:32.907Z,32.10
2022-08-02T12:08:09.622Z,32.20
2022-08-02T12:09:42.982Z,32.70
2022-08-02T12:11:20.661Z,32.70
2022-08-02T12:12:56.248Z,32.30
2022-08-02T12:14:32.780Z,30.70
2022-08-02T12:16:25.727Z,30.80
2022-08-02T12:18:20.451Z,30.70
2022-08-02T12:19:53.643Z,32.30
2022-08-02T12:21:28.406Z,33.50
2022-08-02T12:23:03.805Z,34.60
2022-08-02T12:24:40.195Z,34.90
2022-08-02T12:26:16.293Z,35.70
2022-08-02T12:27:53.219Z,34.80
2022-08-02T12:29:58.238Z,35.20
2022-08-02T12:31:57.215Z,34.00
2022-08-02T12:33:46.143Z,33.10
2022-08-02T12:35:26.782Z,33.60
2022-08-02T12:37:05.331Z,33.40
2022-08-02T12:38:38.514Z,33.90
2022-08-02T12:40:27.763Z,33.50
2022-08-02T12:42:00.959Z,33.50
2022-08-02T12:43:43.544Z,34.00
2022-08-02T12:45:15.763Z,34.30
2022-08-02T12:47:00.267Z,35.20
2022-08-02T12:48:38.287Z,35.80
2022-08-02T12:50:13.155Z,35.20
2022-08-02T12:51:56.734Z,34.70
2022-08-02T12:53:35.073Z,35.30
2022-08-02T12:55:20.278Z,35.70
2022-08-02T12:56:55.509Z,35.30
2022-08-02T12:58:28.852Z,36.20
2022-08-02T13:00:02.170Z,34.20
2022-08-02T13:01:36.786Z,32.10
2022-08-02T13:04:07.702Z,31.70
2022-08-02T13:05:03.189Z,31.30
2022-08-02T13:06:45.158Z,31.40
2022-08-02T13:08:19.350Z,31.70
2022-08-02T13:10:02.490Z,33.10
2022-08-02T13:11:36.637Z,33.10
2022-08-02T13:13:11.499Z,32.30
2022-08-02T13:14:44.622Z,32.00
2022-08-02T13:16:17.950Z,32.20
2022-08-02T13:18:04.567Z,33.10
2022-08-02T13:19:38.321Z,34.10
2022-08-02T13:21:26.893Z,35.20
2022-08-02T13:23:04.905Z,35.30
2022-08-02T13:24:55.271Z,35.00
2022-08-02T13:26:31.519Z,34.00
2022-08-02T13:28:04.801Z,34.90
2022-08-02T13:29:39.572Z,34.20
2022-08-02T13:31:35.386Z,34.50
2022-08-02T13:33:06.477Z,35.00
2022-08-02T13:34:40.116Z,35.70
2022-08-02T13:36:13.330Z,36.50
2022-08-02T13:37:47.777Z,35.60
2022-08-02T13:39:20.950Z,34.30
2022-08-02T13:41:13.732Z,33.20
2022-08-02T13:42:47.017Z,32.30
2022-08-02T13:44:21.271Z,30.90
2022-08-02T13:45:55.803Z,30.40
2022-08-02T13:47:36.014Z,30.00
2022-08-02T13:49:10.129Z,29.70
2022-08-02T13:50:49.642Z,29.30
2022-08-02T13:52:22.958Z,29.40
2022-08-02T13:53:56.116Z,30.70
2022-08-02T13:55:29.491Z,32.20
2022-08-02T13:57:02.663Z,32.40
2022-08-02T13:58:36.215Z,33.20
2022-08-02T14:00:11.006Z,34.20
2022-08-02T14:01:45.959Z,34.70
2022-08-02T14:03:19.180Z,32.00
2022-08-02T14:04:52.899Z,31.30
2022-08-02T14:06:26.064Z,31.10
2022-08-02T14:08:01.467Z,30.70
2022-08-02T14:09:36.044Z,30.90
2022-08-02T14:11:09.218Z,31.70
2022-08-02T14:12:42.338Z,32.40
2022-08-02T14:14:17.208Z,33.70
2022-08-02T14:15:51.070Z,34.30
2022-08-02T14:17:25.737Z,34.00
2022-08-02T14:18:58.913Z,33.10
2022-08-02T14:20:32.302Z,33.10
2022-08-02T14:22:10.918Z,33.00
2022-08-02T14:23:49.442Z,33.20
2022-08-02T14:25:23.587Z,32.00
2022-08-02T14:26:56.756Z,32.00
2022-08-02T14:28:29.859Z,31.60
2022-08-02T14:32:06.673Z,30.70
2022-08-02T14:33:41.315Z,30.60
2022-08-02T14:35:14.538Z,30.50
2022-08-02T14:36:53.282Z,30.90
2022-08-02T14:38:27.005Z,31.70
2022-08-02T14:40:28.083Z,32.20
2022-08-02T14:42:03.806Z,32.70
2022-08-02T14:43:54.655Z,33.10
2022-08-02T14:45:39.992Z,31.90
2022-08-02T14:47:14.443Z,31.10
2022-08-02T14:48:49.040Z,30.90
2022-08-02T14:50:22.270Z,30.80
2022-08-02T14:51:55.881Z,31.00
2022-08-02T14:53:29.082Z,31.10
2022-08-02T14:55:15.467Z,31.10
2022-08-02T14:56:50.363Z,31.00
2022-08-02T14:58:23.613Z,30.90
2022-08-02T14:59:56.994Z,31.00
2022-08-02T15:01:31.424Z,30.80
2022-08-02T15:03:05.021Z,30.90
2022-08-02T15:04:44.108Z,31.10
2022-08-02T15:06:17.298Z,31.00
2022-08-02T15:07:50.579Z,30.90
2022-08-02T15:09:23.936Z,31.30
2022-08-02T15:10:57.168Z,31.40
2022-08-02T15:12:30.329Z,31.80
2022-08-02T15:14:04.241Z,31.80
2022-08-02T15:15:43.199Z,31.70
2022-08-02T15:17:17.059Z,30.90
2022-08-02T15:18:50.246Z,31.20
2022-08-02T15:20:26.376Z,31.00
2022-08-02T15:22:03.193Z,31.00
2022-08-02T15:23:38.573Z,31.30
2022-08-02T15:25:14.772Z,31.30
2022-08-02T15:26:50.166Z,31.60
2022-08-02T15:28:23.408Z,31.70
2022-08-02T15:30:00.779Z,31.60
2022-08-02T15:31:35.974Z,31.50
2022-08-02T15:33:10.999Z,31.40
2022-08-02T15:34:44.188Z,31.30
2022-08-02T15:36:18.809Z,31.10
2022-08-02T15:37:52.591Z,31.00
2022-08-02T15:39:26.284Z,31.00
2022-08-02T15:40:59.507Z,31.10
2022-08-02T15:42:32.796Z,31.10
2022-08-02T15:44:09.701Z,30.70
2022-08-02T15:45:42.954Z,30.50
2022-08-02T15:47:16.159Z,30.50
2022-08-02T15:48:49.602Z,30.50
2022-08-02T15:50:22.970Z,30.60
2022-08-02T15:51:57.622Z,30.70
2022-08-02T15:53:30.828Z,30.80
2022-08-02T15:55:06.885Z,30.80
2022-08-02T15:56:40.785Z,30.60
2022-08-02T15:58:17.849Z,30.50
2022-08-02T15:59:52.997Z,30.20
2022-08-02T16:01:37.696Z,29.60
2022-08-02T16:03:11.748Z,29.80
2022-08-02T16:04:45.045Z,29.80
2022-08-02T16:06:18.473Z,30.00
2022-08-02T16:07:53.363Z,30.20
2022-08-02T16:09:26.562Z,30.20
2022-08-02T16:10:59.805Z,30.30
2022-08-02T16:12:33.180Z,30.40
2022-08-02T16:14:06.072Z,30.50
2022-08-02T16:15:39.284Z,30.50
2022-08-02T16:17:12.725Z,30.50
2022-08-02T16:18:45.974Z,30.40
2022-08-02T16:20:19.196Z,30.50
2022-08-02T16:21:52.625Z,30.70
2022-08-02T16:23:58.742Z,30.70
2022-08-02T16:25:20.673Z,30.70
2022-08-02T16:26:54.344Z,30.40
2022-08-02T16:28:27.599Z,30.20
2022-08-02T16:30:00.862Z,29.80
2022-08-02T16:31:36.486Z,29.70
2022-08-02T16:33:12.119Z,29.70
2022-08-02T16:35:07.030Z,29.70
2022-08-02T16:36:38.609Z,30.00
2022-08-02T16:38:11.839Z,30.00
2022-08-02T16:39:46.635Z,29.80
2022-08-02T16:41:19.860Z,30.00
2022-08-02T16:42:53.297Z,30.10
2022-08-02T16:44:30.126Z,30.20
2022-08-02T16:46:04.192Z,30.30
2022-08-02T16:47:57.462Z,30.20
2022-08-02T16:50:05.768Z,30.30
2022-08-02T16:51:26.975Z,30.30
2022-08-02T16:53:07.497Z,30.30
2022-08-02T16:54:40.990Z,30.20
2022-08-02T16:56:15.912Z,30.20
2022-08-02T16:57:50.413Z,30.10
2022-08-02T16:59:25.565Z,30.10
2022-08-02T17:00:58.849Z,30.00
2022-08-02T17:02:32.133Z,29.90
2022-08-02T17:04:09.560Z,29.80
2022-08-02T17:05:56.566Z,29.80
2022-08-02T17:08:07.265Z,29.70
2022-08-02T17:10:01.851Z,29.70
2022-08-02T17:11:19.960Z,29.80
2022-08-02T17:12:53.358Z,29.70
2022-08-02T17:14:26.806Z,29.60
2022-08-02T17:16:16.068Z,29.50
2022-08-02T17:17:53.634Z,29.50
2022-08-02T17:19:27.083Z,29.40
2022-08-02T17:21:03.965Z,29.40
2022-08-02T17:22:38.650Z,29.40
2022-08-02T17:24:11.897Z,29.20
2022-08-02T17:25:52.713Z,29.10
2022-08-02T17:27:27.621Z,29.10
2022-08-02T17:29:16.533Z,28.90
2022-08-02T17:30:51.669Z,28.70
2022-08-02T17:32:24.942Z,28.70
2022-08-02T17:34:02.516Z,28.70
2022-08-02T17:35:43.836Z,28.70
2022-08-02T17:37:25.917Z,28.60
2022-08-02T17:38:59.424Z,28.30
2022-08-02T17:40:38.143Z,28.20
2022-08-02T17:42:15.213Z,28.10
2022-08-02T17:43:54.400Z,28.00
2022-08-02T17:46:01.065Z,28.00
2022-08-02T17:47:21.555Z,27.80
2022-08-02T17:49:12.814Z,27.70
2022-08-02T17:50:48.835Z,27.50
2022-08-02T17:52:51.954Z,27.20
2022-08-02T17:54:21.907Z,27.10
2022-08-02T17:55:56.332Z,27.00
2022-08-02T17:57:55.844Z,26.90
2022-08-02T17:59:31.172Z,26.80
2022-08-02T18:01:23.939Z,26.70
2022-08-02T18:02:57.495Z,26.60
2022-08-02T18:04:31.491Z,26.50
2022-08-02T18:06:06.165Z,26.40
2022-08-02T18:07:49.126Z,26.40
2022-08-02T18:09:25.170Z,26.30
2022-08-02T18:11:00.144Z,26.20
2022-08-02T18:12:34.236Z,26.10
2022-08-02T18:14:07.525Z,26.00
2022-08-02T18:15:42.098Z,25.90
2022-08-02T18:17:19.165Z,25.80
2022-08-02T18:18:52.553Z,25.70
2022-08-02T18:20:25.996Z,25.50
2022-08-02T18:21:59.283Z,25.40
2022-08-02T18:23:37.791Z,25.30
2022-08-02T18:25:18.371Z,25.20
2022-08-02T18:27:10.744Z,25.00
2022-08-02T18:28:44.044Z,24.80
2022-08-02T18:32:14.605Z,24.60
2022-08-02T18:33:59.516Z,24.60
2022-08-02T18:35:34.932Z,24.50
2022-08-02T18:37:08.479Z,24.50
2022-08-02T18:38:45.688Z,24.40
2022-08-02T18:40:19.780Z,24.40
2022-08-02T18:41:54.162Z,24.20
2022-08-02T18:43:29.417Z,24.10
2022-08-02T18:45:02.968Z,24.00
2022-08-02T18:46:39.883Z,23.90
2022-08-02T18:48:17.519Z,23.90
2022-08-02T18:49:55.862Z,23.90
2022-08-02T18:51:29.463Z,23.80
2022-08-02T18:53:10.081Z,23.70
2022-08-02T18:54:46.085Z,23.60
2022-08-02T18:56:19.829Z,23.60
2022-08-02T18:58:16.652Z,23.60
2022-08-02T19:01:50.532Z,23.40
2022-08-02T19:03:25.955Z,23.30
2022-08-02T19:04:59.611Z,23.30
2022-08-02T19:06:34.229Z,23.20
2022-08-02T19:08:07.906Z,23.10
2022-08-02T19:09:41.420Z,23.00
2022-08-02T19:11:15.981Z,22.90
2022-08-02T19:12:51.762Z,22.80
2022-08-02T19:14:27.781Z,22.80
2022-08-02T19:16:01.795Z,22.80
2022-08-02T19:17:53.658Z,22.80
2022-08-02T19:19:30.033Z,22.80
2022-08-02T19:21:05.746Z,22.80
2022-08-02T19:22:40.757Z,22.80
2022-08-02T19:24:14.828Z,22.80
2022-08-02T19:25:54.388Z,22.80
2022-08-02T19:27:32.523Z,22.70
2022-08-02T19:29:08.665Z,22.60
2022-08-02T19:30:42.805Z,22.60
2022-08-02T19:32:39.896Z,22.60
2022-08-02T19:34:10.396Z,22.50
2022-08-02T19:36:01.507Z,22.40
2022-08-02T19:37:38.589Z,22.40
2022-08-02T19:39:16.887Z,22.20
2022-08-02T19:40:50.382Z,22.20
2022-08-02T19:42:23.672Z,22.10
2022-08-02T19:44:26.241Z,22.10
2022-08-02T19:45:51.527Z,22.00
2022-08-02T19:47:25.176Z,21.90
2022-08-02T19:49:20.146Z,21.90
2022-08-02T19:51:07.876Z,21.80
2022-08-02T19:52:42.105Z,21.80
2022-08-02T19:54:15.527Z,21.70
2022-08-02T19:56:00.795Z,21.60
2022-08-02T19:57:36.286Z,21.60
2022-08-02T19:59:15.418Z,21.60
2022-08-02T20:00:48.738Z,21.60
2022-08-02T20:02:22.694Z,21.50
2022-08-02T20:03:55.971Z,21.40
2022-08-02T20:05:29.301Z,21.40
2022-08-02T20:07:04.827Z,21.30
2022-08-02T20:08:38.152Z,21.20
2022-08-02T20:10:11.900Z,21.20
2022-08-02T20:11:45.750Z,21.10
2022-08-02T20:13:18.973Z,21.10
2022-08-02T20:14:57.114Z,21.10
2022-08-02T20:16:32.847Z,21.00
2022-08-02T20:18:06.587Z,21.00
2022-08-02T20:19:42.171Z,20.90
2022-08-02T20:21:34.080Z,20.80
2022-08-02T20:23:33.716Z,20.80
2022-08-02T20:25:08.290Z,20.80
2022-08-02T20:26:47.062Z,20.70
2022-08-02T20:28:21.817Z,20.70
2022-08-02T20:29:55.759Z,20.60
2022-08-02T20:31:29.808Z,20.60
2022-08-02T20:33:03.353Z,20.50
2022-08-02T20:34:55.426Z,20.50
2022-08-02T20:36:29.864Z,20.50
2022-08-02T20:38:04.621Z,20.40
2022-08-02T20:39:43.544Z,20.40
2022-08-02T20:41:21.335Z,20.40
2022-08-02T20:42:55.342Z,20.30
2022-08-02T20:44:30.091Z,20.30
2022-08-02T20:46:04.647Z,20.20
2022-08-02T20:47:39.855Z,20.20
2022-08-02T20:49:21.673Z,20.10
2022-08-02T20:50:57.900Z,20.10
2022-08-02T20:52:31.906Z,20.10
2022-08-02T20:54:05.985Z,20.00
2022-08-02T20:55:47.309Z,20.00
2022-08-02T20:57:20.676Z,19.90
2022-08-02T20:59:16.103Z,19.90